sensor_id;sensor_type;location;lat;lon;timestamp;P1;durP1;ratioP1;P2;durP2;ratioP2
19754;SDS011;10036;47.812;9.274;2022-12-07T00:01:35;45.25;;;24.17;;
19754;SDS011;10036;47.812;9.274;2022-12-07T00:04:06;45.47;;;24.80;;
19754;SDS011;10036;47.812;9.274;2022-12-07T00:06:36;47.72;;;24.85;;
19754;SDS011;10036;47.812;9.274;2022-12-07T00:09:05;45.67;;;23.25;;
19754;SDS011;10036;47.812;9.274;2022-12-07T00:11:33;46.78;;;23.95;;
19754;SDS011;10036;47.812;9.274;2022-12-07T00:14:01;44.33;;;23.77;;
19754;SDS011;10036;47.812;9.274;2022-12-07T00:16:29;48.28;;;24.67;;
19754;SDS011;10036;47.812;9.274;2022-12-07T00:18:57;44.95;;;23.80;;
19754;SDS011;10036;47.812;9.274;2022-12-07T00:21:27;42.55;;;23.15;;
19754;SDS011;10036;47.812;9.274;2022-12-07T00:23:54;44.95;;;24.77;;
19754;SDS011;10036;47.812;9.274;2022-12-07T00:26:23;50.42;;;25.95;;
19754;SDS011;10036;47.812;9.274;2022-12-07T00:28:51;45.10;;;24.20;;
19754;SDS011;10036;47.812;9.274;2022-12-07T00:31:20;44.38;;;24.23;;
19754;SDS011;10036;47.812;9.274;2022-12-07T00:33:48;45.78;;;24.05;;
19754;SDS011;10036;47.812;9.274;2022-12-07T00:36:17;44.80;;;23.98;;
19754;SDS011;10036;47.812;9.274;2022-12-07T00:38:46;44.20;;;24.05;;
19754;SDS011;10036;47.812;9.274;2022-12-07T00:41:14;47.92;;;24.80;;
19754;SDS011;10036;47.812;9.274;2022-12-07T00:43:42;44.17;;;23.60;;
19754;SDS011;10036;47.812;9.274;2022-12-07T00:46:10;43.47;;;23.70;;
19754;SDS011;10036;47.812;9.274;2022-12-07T00:48:37;46.30;;;25.70;;
19754;SDS011;10036;47.812;9.274;2022-12-07T00:51:05;42.50;;;23.50;;
19754;SDS011;10036;47.812;9.274;2022-12-07T00:53:33;48.30;;;25.15;;
19754;SDS011;10036;47.812;9.274;2022-12-07T00:56:05;43.78;;;23.15;;
19754;SDS011;10036;47.812;9.274;2022-12-07T00:58:33;45.88;;;24.10;;
19754;SDS011;10036;47.812;9.274;2022-12-07T01:01:00;47.53;;;23.60;;
19754;SDS011;10036;47.812;9.274;2022-12-07T01:03:28;45.63;;;23.88;;
19754;SDS011;10036;47.812;9.274;2022-12-07T01:05:55;49.03;;;25.08;;
19754;SDS011;10036;47.812;9.274;2022-12-07T01:08:23;47.63;;;24.17;;
19754;SDS011;10036;47.812;9.274;2022-12-07T01:10:57;47.35;;;24.65;;
19754;SDS011;10036;47.812;9.274;2022-12-07T01:13:27;47.40;;;24.25;;
19754;SDS011;10036;47.812;9.274;2022-12-07T01:15:56;46.58;;;24.48;;
19754;SDS011;10036;47.812;9.274;2022-12-07T01:18:24;45.40;;;24.52;;
19754;SDS011;10036;47.812;9.274;2022-12-07T01:20:59;45.72;;;24.65;;
19754;SDS011;10036;47.812;9.274;2022-12-07T01:23:27;46.22;;;24.40;;
19754;SDS011;10036;47.812;9.274;2022-12-07T01:25:55;47.20;;;25.23;;
19754;SDS011;10036;47.812;9.274;2022-12-07T01:28:22;46.60;;;23.58;;
19754;SDS011;10036;47.812;9.274;2022-12-07T01:30:58;42.83;;;23.33;;
19754;SDS011;10036;47.812;9.274;2022-12-07T01:33:27;45.75;;;23.85;;
19754;SDS011;10036;47.812;9.274;2022-12-07T01:35:54;47.60;;;24.88;;
19754;SDS011;10036;47.812;9.274;2022-12-07T01:38:26;45.20;;;23.98;;
19754;SDS011;10036;47.812;9.274;2022-12-07T01:40:54;50.42;;;24.65;;
19754;SDS011;10036;47.812;9.274;2022-12-07T01:43:21;52.28;;;25.10;;
19754;SDS011;10036;47.812;9.274;2022-12-07T01:45:50;51.47;;;24.75;;
19754;SDS011;10036;47.812;9.274;2022-12-07T01:48:18;45.38;;;23.75;;
19754;SDS011;10036;47.812;9.274;2022-12-07T01:50:48;44.53;;;23.30;;
19754;SDS011;10036;47.812;9.274;2022-12-07T01:53:17;46.28;;;23.77;;
19754;SDS011;10036;47.812;9.274;2022-12-07T01:55:45;46.95;;;23.67;;
19754;SDS011;10036;47.812;9.274;2022-12-07T01:58:16;45.47;;;22.48;;
19754;SDS011;10036;47.812;9.274;2022-12-07T02:00:43;42.72;;;23.10;;
19754;SDS011;10036;47.812;9.274;2022-12-07T02:03:11;41.00;;;22.70;;
19754;SDS011;10036;47.812;9.274;2022-12-07T02:05:44;42.83;;;23.10;;
19754;SDS011;10036;47.812;9.274;2022-12-07T02:08:13;42.50;;;23.17;;
19754;SDS011;10036;47.812;9.274;2022-12-07T02:10:40;42.08;;;22.33;;
19754;SDS011;10036;47.812;9.274;2022-12-07T02:13:09;44.25;;;22.92;;
19754;SDS011;10036;47.812;9.274;2022-12-07T02:15:41;42.17;;;23.05;;
19754;SDS011;10036;47.812;9.274;2022-12-07T02:18:23;43.63;;;22.58;;
19754;SDS011;10036;47.812;9.274;2022-12-07T02:21:01;41.80;;;21.50;;
19754;SDS011;10036;47.812;9.274;2022-12-07T02:23:39;42.17;;;21.63;;
19754;SDS011;10036;47.812;9.274;2022-12-07T02:26:19;39.42;;;22.65;;
19754;SDS011;10036;47.812;9.274;2022-12-07T02:29:13;38.83;;;21.10;;
19754;SDS011;10036;47.812;9.274;2022-12-07T02:31:46;40.33;;;21.17;;
19754;SDS011;10036;47.812;9.274;2022-12-07T02:34:21;41.92;;;22.55;;
19754;SDS011;10036;47.812;9.274;2022-12-07T02:36:55;37.92;;;20.85;;
19754;SDS011;10036;47.812;9.274;2022-12-07T02:39:28;38.38;;;20.63;;
19754;SDS011;10036;47.812;9.274;2022-12-07T02:42:02;44.05;;;22.42;;
19754;SDS011;10036;47.812;9.274;2022-12-07T02:44:39;40.42;;;21.40;;
19754;SDS011;10036;47.812;9.274;2022-12-07T02:47:08;37.03;;;20.27;;
19754;SDS011;10036;47.812;9.274;2022-12-07T02:49:39;41.85;;;20.65;;
19754;SDS011;10036;47.812;9.274;2022-12-07T02:52:07;34.88;;;19.95;;
19754;SDS011;10036;47.812;9.274;2022-12-07T02:54:34;37.17;;;19.80;;
19754;SDS011;10036;47.812;9.274;2022-12-07T02:57:02;38.35;;;20.35;;
19754;SDS011;10036;47.812;9.274;2022-12-07T02:59:40;35.85;;;19.70;;
19754;SDS011;10036;47.812;9.274;2022-12-07T03:02:17;39.28;;;20.80;;
19754;SDS011;10036;47.812;9.274;2022-12-07T03:04:58;35.83;;;19.13;;
19754;SDS011;10036;47.812;9.274;2022-12-07T03:07:33;38.75;;;19.02;;
19754;SDS011;10036;47.812;9.274;2022-12-07T03:10:07;38.58;;;19.73;;
19754;SDS011;10036;47.812;9.274;2022-12-07T03:12:43;38.55;;;20.17;;
19754;SDS011;10036;47.812;9.274;2022-12-07T03:15:16;34.85;;;18.25;;
19754;SDS011;10036;47.812;9.274;2022-12-07T03:17:48;37.75;;;20.10;;
19754;SDS011;10036;47.812;9.274;2022-12-07T03:20:17;35.75;;;19.38;;
19754;SDS011;10036;47.812;9.274;2022-12-07T03:22:46;38.33;;;20.55;;
19754;SDS011;10036;47.812;9.274;2022-12-07T03:25:13;37.10;;;19.17;;
19754;SDS011;10036;47.812;9.274;2022-12-07T03:27:43;36.38;;;19.92;;
19754;SDS011;10036;47.812;9.274;2022-12-07T03:30:19;35.13;;;19.10;;
19754;SDS011;10036;47.812;9.274;2022-12-07T03:32:48;45.72;;;22.27;;
19754;SDS011;10036;47.812;9.274;2022-12-07T03:35:21;45.30;;;22.48;;
19754;SDS011;10036;47.812;9.274;2022-12-07T03:37:53;44.33;;;22.02;;
19754;SDS011;10036;47.812;9.274;2022-12-07T03:40:24;49.05;;;23.58;;
19754;SDS011;10036;47.812;9.274;2022-12-07T03:42:56;50.88;;;23.08;;
19754;SDS011;10036;47.812;9.274;2022-12-07T03:45:29;48.00;;;22.50;;
19754;SDS011;10036;47.812;9.274;2022-12-07T03:48:02;52.28;;;24.10;;
19754;SDS011;10036;47.812;9.274;2022-12-07T03:50:34;52.00;;;23.20;;
19754;SDS011;10036;47.812;9.274;2022-12-07T03:53:09;45.70;;;22.27;;
19754;SDS011;10036;47.812;9.274;2022-12-07T03:55:41;46.85;;;22.40;;
19754;SDS011;10036;47.812;9.274;2022-12-07T03:58:11;45.67;;;22.17;;
19754;SDS011;10036;47.812;9.274;2022-12-07T04:00:42;49.47;;;22.67;;
19754;SDS011;10036;47.812;9.274;2022-12-07T04:03:09;49.45;;;21.58;;
19754;SDS011;10036;47.812;9.274;2022-12-07T04:05:36;50.83;;;21.92;;
19754;SDS011;10036;47.812;9.274;2022-12-07T04:08:04;49.92;;;22.95;;
19754;SDS011;10036;47.812;9.274;2022-12-07T04:10:31;43.58;;;21.92;;
19754;SDS011;10036;47.812;9.274;2022-12-07T04:12:58;48.30;;;21.85;;
19754;SDS011;10036;47.812;9.274;2022-12-07T04:15:25;44.05;;;20.52;;
19754;SDS011;10036;47.812;9.274;2022-12-07T04:17:53;41.47;;;21.13;;
19754;SDS011;10036;47.812;9.274;2022-12-07T04:20:20;37.75;;;20.33;;
19754;SDS011;10036;47.812;9.274;2022-12-07T04:22:47;40.78;;;20.20;;
19754;SDS011;10036;47.812;9.274;2022-12-07T04:25:14;40.53;;;20.10;;
19754;SDS011;10036;47.812;9.274;2022-12-07T04:27:40;40.20;;;20.40;;
19754;SDS011;10036;47.812;9.274;2022-12-07T04:30:08;41.25;;;20.27;;
19754;SDS011;10036;47.812;9.274;2022-12-07T04:32:35;37.47;;;19.00;;
19754;SDS011;10036;47.812;9.274;2022-12-07T04:35:03;39.13;;;19.25;;
19754;SDS011;10036;47.812;9.274;2022-12-07T04:37:31;37.15;;;19.42;;
19754;SDS011;10036;47.812;9.274;2022-12-07T04:39:58;34.70;;;18.77;;
19754;SDS011;10036;47.812;9.274;2022-12-07T04:42:25;40.65;;;19.67;;
19754;SDS011;10036;47.812;9.274;2022-12-07T04:44:52;35.90;;;18.65;;
19754;SDS011;10036;47.812;9.274;2022-12-07T04:47:19;37.25;;;18.35;;
19754;SDS011;10036;47.812;9.274;2022-12-07T04:49:46;35.00;;;18.25;;
19754;SDS011;10036;47.812;9.274;2022-12-07T04:52:14;34.35;;;18.13;;
19754;SDS011;10036;47.812;9.274;2022-12-07T04:54:41;35.25;;;18.33;;
19754;SDS011;10036;47.812;9.274;2022-12-07T04:57:07;37.35;;;18.77;;
19754;SDS011;10036;47.812;9.274;2022-12-07T04:59:34;36.17;;;18.30;;
19754;SDS011;10036;47.812;9.274;2022-12-07T05:02:01;34.28;;;17.15;;
19754;SDS011;10036;47.812;9.274;2022-12-07T05:04:28;33.22;;;17.17;;
19754;SDS011;10036;47.812;9.274;2022-12-07T05:06:55;30.85;;;17.13;;
19754;SDS011;10036;47.812;9.274;2022-12-07T05:09:23;31.40;;;16.95;;
19754;SDS011;10036;47.812;9.274;2022-12-07T05:11:50;31.25;;;17.63;;
19754;SDS011;10036;47.812;9.274;2022-12-07T05:14:17;27.63;;;16.17;;
19754;SDS011;10036;47.812;9.274;2022-12-07T05:16:46;32.63;;;17.58;;
19754;SDS011;10036;47.812;9.274;2022-12-07T05:19:14;29.65;;;16.98;;
19754;SDS011;10036;47.812;9.274;2022-12-07T05:21:42;30.60;;;16.70;;
19754;SDS011;10036;47.812;9.274;2022-12-07T05:24:10;28.75;;;16.48;;
19754;SDS011;10036;47.812;9.274;2022-12-07T05:26:40;29.52;;;16.90;;
19754;SDS011;10036;47.812;9.274;2022-12-07T05:29:07;31.38;;;17.52;;
19754;SDS011;10036;47.812;9.274;2022-12-07T05:31:36;28.88;;;17.00;;
19754;SDS011;10036;47.812;9.274;2022-12-07T05:34:03;31.17;;;17.80;;
19754;SDS011;10036;47.812;9.274;2022-12-07T05:36:29;30.40;;;17.50;;
19754;SDS011;10036;47.812;9.274;2022-12-07T05:38:57;32.50;;;16.75;;
19754;SDS011;10036;47.812;9.274;2022-12-07T05:41:24;29.58;;;16.00;;
19754;SDS011;10036;47.812;9.274;2022-12-07T05:44:09;27.85;;;15.50;;
19754;SDS011;10036;47.812;9.274;2022-12-07T05:46:36;25.98;;;14.55;;
19754;SDS011;10036;47.812;9.274;2022-12-07T05:49:03;23.15;;;14.10;;
19754;SDS011;10036;47.812;9.274;2022-12-07T05:51:30;23.63;;;14.73;;
19754;SDS011;10036;47.812;9.274;2022-12-07T05:53:57;27.13;;;14.88;;
19754;SDS011;10036;47.812;9.274;2022-12-07T05:56:24;24.77;;;15.02;;
19754;SDS011;10036;47.812;9.274;2022-12-07T05:58:52;26.38;;;15.38;;
19754;SDS011;10036;47.812;9.274;2022-12-07T06:01:38;25.85;;;15.25;;
19754;SDS011;10036;47.812;9.274;2022-12-07T06:04:05;29.25;;;15.55;;
19754;SDS011;10036;47.812;9.274;2022-12-07T06:06:32;23.83;;;14.65;;
19754;SDS011;10036;47.812;9.274;2022-12-07T06:08:58;24.80;;;15.27;;
19754;SDS011;10036;47.812;9.274;2022-12-07T06:11:25;24.27;;;14.38;;
19754;SDS011;10036;47.812;9.274;2022-12-07T06:14:10;25.10;;;16.17;;
19754;SDS011;10036;47.812;9.274;2022-12-07T06:16:38;29.50;;;16.65;;
19754;SDS011;10036;47.812;9.274;2022-12-07T06:19:05;29.80;;;16.20;;
19754;SDS011;10036;47.812;9.274;2022-12-07T06:21:32;29.77;;;16.08;;
19754;SDS011;10036;47.812;9.274;2022-12-07T06:23:59;29.63;;;16.50;;
19754;SDS011;10036;47.812;9.274;2022-12-07T06:26:27;29.15;;;17.23;;
19754;SDS011;10036;47.812;9.274;2022-12-07T06:28:54;27.42;;;16.55;;
19754;SDS011;10036;47.812;9.274;2022-12-07T06:31:20;29.73;;;16.60;;
19754;SDS011;10036;47.812;9.274;2022-12-07T06:33:49;27.08;;;16.85;;
19754;SDS011;10036;47.812;9.274;2022-12-07T06:36:16;27.75;;;16.85;;
19754;SDS011;10036;47.812;9.274;2022-12-07T06:38:43;30.08;;;16.90;;
19754;SDS011;10036;47.812;9.274;2022-12-07T06:41:09;28.27;;;16.65;;
19754;SDS011;10036;47.812;9.274;2022-12-07T06:43:36;27.73;;;15.88;;
19754;SDS011;10036;47.812;9.274;2022-12-07T06:46:03;28.52;;;17.45;;
19754;SDS011;10036;47.812;9.274;2022-12-07T06:48:30;29.48;;;16.38;;
19754;SDS011;10036;47.812;9.274;2022-12-07T06:50:58;28.33;;;16.60;;
19754;SDS011;10036;47.812;9.274;2022-12-07T06:53:25;28.48;;;16.20;;
19754;SDS011;10036;47.812;9.274;2022-12-07T06:55:52;28.02;;;16.40;;
19754;SDS011;10036;47.812;9.274;2022-12-07T06:58:19;29.38;;;15.90;;
19754;SDS011;10036;47.812;9.274;2022-12-07T07:00:47;27.60;;;15.93;;
19754;SDS011;10036;47.812;9.274;2022-12-07T07:03:14;30.63;;;16.73;;
19754;SDS011;10036;47.812;9.274;2022-12-07T07:05:42;28.77;;;16.60;;
19754;SDS011;10036;47.812;9.274;2022-12-07T07:08:10;28.60;;;16.48;;
19754;SDS011;10036;47.812;9.274;2022-12-07T07:10:37;28.20;;;15.85;;
19754;SDS011;10036;47.812;9.274;2022-12-07T07:13:05;30.65;;;17.20;;
19754;SDS011;10036;47.812;9.274;2022-12-07T07:15:32;33.42;;;17.40;;
19754;SDS011;10036;47.812;9.274;2022-12-07T07:17:59;32.38;;;16.83;;
19754;SDS011;10036;47.812;9.274;2022-12-07T07:20:28;29.85;;;17.00;;
19754;SDS011;10036;47.812;9.274;2022-12-07T07:22:55;29.05;;;15.82;;
19754;SDS011;10036;47.812;9.274;2022-12-07T07:25:23;31.75;;;16.95;;
19754;SDS011;10036;47.812;9.274;2022-12-07T07:27:50;30.75;;;16.35;;
19754;SDS011;10036;47.812;9.274;2022-12-07T07:30:17;29.33;;;16.00;;
19754;SDS011;10036;47.812;9.274;2022-12-07T07:32:44;31.23;;;16.67;;
19754;SDS011;10036;47.812;9.274;2022-12-07T07:35:11;30.17;;;16.85;;
19754;SDS011;10036;47.812;9.274;2022-12-07T07:37:39;25.17;;;15.32;;
19754;SDS011;10036;47.812;9.274;2022-12-07T07:40:07;32.13;;;17.23;;
19754;SDS011;10036;47.812;9.274;2022-12-07T07:42:36;26.38;;;15.82;;
19754;SDS011;10036;47.812;9.274;2022-12-07T07:45:03;31.02;;;16.48;;
19754;SDS011;10036;47.812;9.274;2022-12-07T07:47:30;27.80;;;15.25;;
19754;SDS011;10036;47.812;9.274;2022-12-07T07:49:57;28.40;;;16.48;;
19754;SDS011;10036;47.812;9.274;2022-12-07T07:52:24;29.10;;;17.05;;
19754;SDS011;10036;47.812;9.274;2022-12-07T07:54:51;30.02;;;16.27;;
19754;SDS011;10036;47.812;9.274;2022-12-07T07:57:18;31.20;;;17.30;;
19754;SDS011;10036;47.812;9.274;2022-12-07T07:59:46;28.98;;;17.10;;
19754;SDS011;10036;47.812;9.274;2022-12-07T08:02:13;29.38;;;17.00;;
19754;SDS011;10036;47.812;9.274;2022-12-07T08:04:42;28.73;;;16.83;;
19754;SDS011;10036;47.812;9.274;2022-12-07T08:07:09;28.40;;;15.90;;
19754;SDS011;10036;47.812;9.274;2022-12-07T08:09:36;28.08;;;16.05;;
19754;SDS011;10036;47.812;9.274;2022-12-07T08:12:03;29.98;;;16.05;;
19754;SDS011;10036;47.812;9.274;2022-12-07T08:14:31;26.48;;;15.63;;
19754;SDS011;10036;47.812;9.274;2022-12-07T08:16:59;29.70;;;16.38;;
19754;SDS011;10036;47.812;9.274;2022-12-07T08:19:26;28.15;;;15.90;;
19754;SDS011;10036;47.812;9.274;2022-12-07T08:21:53;30.45;;;16.88;;
19754;SDS011;10036;47.812;9.274;2022-12-07T08:24:21;26.92;;;15.82;;
19754;SDS011;10036;47.812;9.274;2022-12-07T08:26:48;28.75;;;17.27;;
19754;SDS011;10036;47.812;9.274;2022-12-07T08:29:15;31.90;;;18.60;;
19754;SDS011;10036;47.812;9.274;2022-12-07T08:31:42;28.23;;;16.83;;
19754;SDS011;10036;47.812;9.274;2022-12-07T08:34:11;31.08;;;18.67;;
19754;SDS011;10036;47.812;9.274;2022-12-07T08:36:38;29.35;;;16.85;;
19754;SDS011;10036;47.812;9.274;2022-12-07T08:39:05;28.60;;;17.48;;
19754;SDS011;10036;47.812;9.274;2022-12-07T08:41:32;32.42;;;18.17;;
19754;SDS011;10036;47.812;9.274;2022-12-07T08:43:59;31.15;;;18.15;;
19754;SDS011;10036;47.812;9.274;2022-12-07T08:46:26;35.15;;;18.95;;
19754;SDS011;10036;47.812;9.274;2022-12-07T08:49:02;35.35;;;19.50;;
19754;SDS011;10036;47.812;9.274;2022-12-07T08:51:32;32.08;;;18.50;;
19754;SDS011;10036;47.812;9.274;2022-12-07T08:53:59;31.63;;;17.95;;
19754;SDS011;10036;47.812;9.274;2022-12-07T08:56:27;29.42;;;16.88;;
19754;SDS011;10036;47.812;9.274;2022-12-07T08:58:54;28.20;;;16.77;;
19754;SDS011;10036;47.812;9.274;2022-12-07T09:01:21;28.75;;;17.50;;
19754;SDS011;10036;47.812;9.274;2022-12-07T09:03:49;28.85;;;15.93;;
19754;SDS011;10036;47.812;9.274;2022-12-07T09:06:16;27.98;;;16.65;;
19754;SDS011;10036;47.812;9.274;2022-12-07T09:08:46;34.50;;;18.10;;
19754;SDS011;10036;47.812;9.274;2022-12-07T09:11:15;33.60;;;19.35;;
19754;SDS011;10036;47.812;9.274;2022-12-07T09:13:42;31.52;;;18.52;;
19754;SDS011;10036;47.812;9.274;2022-12-07T09:16:09;34.15;;;19.17;;
19754;SDS011;10036;47.812;9.274;2022-12-07T09:18:36;29.98;;;18.23;;
19754;SDS011;10036;47.812;9.274;2022-12-07T09:21:03;32.15;;;19.48;;
19754;SDS011;10036;47.812;9.274;2022-12-07T09:23:30;32.00;;;18.23;;
19754;SDS011;10036;47.812;9.274;2022-12-07T09:26:00;26.00;;;16.10;;
19754;SDS011;10036;47.812;9.274;2022-12-07T09:28:27;28.10;;;16.73;;
19754;SDS011;10036;47.812;9.274;2022-12-07T09:30:53;26.13;;;16.27;;
19754;SDS011;10036;47.812;9.274;2022-12-07T09:33:20;24.52;;;14.80;;
19754;SDS011;10036;47.812;9.274;2022-12-07T09:35:48;23.73;;;14.40;;
19754;SDS011;10036;47.812;9.274;2022-12-07T09:38:15;24.38;;;14.90;;
19754;SDS011;10036;47.812;9.274;2022-12-07T09:40:43;23.13;;;13.73;;
19754;SDS011;10036;47.812;9.274;2022-12-07T09:43:13;21.40;;;14.02;;
19754;SDS011;10036;47.812;9.274;2022-12-07T09:45:41;23.05;;;13.05;;
19754;SDS011;10036;47.812;9.274;2022-12-07T09:48:11;22.50;;;13.48;;
19754;SDS011;10036;47.812;9.274;2022-12-07T09:50:43;19.83;;;12.52;;
19754;SDS011;10036;47.812;9.274;2022-12-07T09:53:12;17.65;;;11.88;;
19754;SDS011;10036;47.812;9.274;2022-12-07T09:55:43;20.27;;;12.48;;
19754;SDS011;10036;47.812;9.274;2022-12-07T09:58:13;20.83;;;12.35;;
19754;SDS011;10036;47.812;9.274;2022-12-07T10:00:45;20.25;;;12.80;;
19754;SDS011;10036;47.812;9.274;2022-12-07T10:03:12;21.95;;;14.13;;
19754;SDS011;10036;47.812;9.274;2022-12-07T10:05:40;20.95;;;13.50;;
19754;SDS011;10036;47.812;9.274;2022-12-07T10:08:10;22.90;;;13.80;;
19754;SDS011;10036;47.812;9.274;2022-12-07T10:10:38;22.75;;;13.75;;
19754;SDS011;10036;47.812;9.274;2022-12-07T10:13:07;23.60;;;14.15;;
19754;SDS011;10036;47.812;9.274;2022-12-07T10:15:46;23.48;;;13.82;;
19754;SDS011;10036;47.812;9.274;2022-12-07T10:18:19;24.45;;;14.85;;
19754;SDS011;10036;47.812;9.274;2022-12-07T10:20:59;25.90;;;15.18;;
19754;SDS011;10036;47.812;9.274;2022-12-07T10:23:32;28.25;;;15.23;;
19754;SDS011;10036;47.812;9.274;2022-12-07T10:26:03;26.60;;;15.65;;
19754;SDS011;10036;47.812;9.274;2022-12-07T10:28:46;26.77;;;15.57;;
19754;SDS011;10036;47.812;9.274;2022-12-07T10:31:16;23.38;;;14.10;;
19754;SDS011;10036;47.812;9.274;2022-12-07T10:33:49;26.17;;;15.13;;
19754;SDS011;10036;47.812;9.274;2022-12-07T10:36:18;24.27;;;14.15;;
19754;SDS011;10036;47.812;9.274;2022-12-07T10:38:48;23.92;;;14.48;;
19754;SDS011;10036;47.812;9.274;2022-12-07T10:41:17;25.60;;;13.98;;
19754;SDS011;10036;47.812;9.274;2022-12-07T10:43:47;26.17;;;15.93;;
19754;SDS011;10036;47.812;9.274;2022-12-07T10:49:25;22.88;;;13.73;;
19754;SDS011;10036;47.812;9.274;2022-12-07T10:52:23;22.67;;;14.43;;
19754;SDS011;10036;47.812;9.274;2022-12-07T10:55:03;23.45;;;14.43;;
19754;SDS011;10036;47.812;9.274;2022-12-07T10:57:41;25.70;;;14.68;;
19754;SDS011;10036;47.812;9.274;2022-12-07T11:00:18;24.30;;;14.35;;
19754;SDS011;10036;47.812;9.274;2022-12-07T11:05:45;22.05;;;14.23;;
19754;SDS011;10036;47.812;9.274;2022-12-07T11:08:20;20.70;;;12.90;;
19754;SDS011;10036;47.812;9.274;2022-12-07T11:10:58;21.13;;;13.35;;
19754;SDS011;10036;47.812;9.274;2022-12-07T11:13:33;22.50;;;13.23;;
19754;SDS011;10036;47.812;9.274;2022-12-07T11:16:19;26.38;;;14.23;;
19754;SDS011;10036;47.812;9.274;2022-12-07T11:19:03;22.23;;;13.35;;
19754;SDS011;10036;47.812;9.274;2022-12-07T11:21:43;24.00;;;13.18;;
19754;SDS011;10036;47.812;9.274;2022-12-07T11:24:16;70.57;;;36.97;;
19754;SDS011;10036;47.812;9.274;2022-12-07T11:26:57;50.78;;;30.35;;
19754;SDS011;10036;47.812;9.274;2022-12-07T11:32:28;25.35;;;15.52;;
19754;SDS011;10036;47.812;9.274;2022-12-07T11:35:11;20.50;;;12.63;;
19754;SDS011;10036;47.812;9.274;2022-12-07T11:37:47;22.60;;;13.13;;
19754;SDS011;10036;47.812;9.274;2022-12-07T11:40:18;20.95;;;12.38;;
19754;SDS011;10036;47.812;9.274;2022-12-07T11:42:53;20.52;;;12.75;;
19754;SDS011;10036;47.812;9.274;2022-12-07T11:45:25;18.02;;;11.25;;
19754;SDS011;10036;47.812;9.274;2022-12-07T11:47:55;17.98;;;11.35;;
19754;SDS011;10036;47.812;9.274;2022-12-07T11:50:30;21.27;;;12.52;;
19754;SDS011;10036;47.812;9.274;2022-12-07T11:53:01;26.42;;;14.00;;
19754;SDS011;10036;47.812;9.274;2022-12-07T11:55:32;28.98;;;15.50;;
19754;SDS011;10036;47.812;9.274;2022-12-07T11:58:13;19.67;;;11.90;;
19754;SDS011;10036;47.812;9.274;2022-12-07T12:00:49;28.25;;;16.05;;
19754;SDS011;10036;47.812;9.274;2022-12-07T12:03:23;29.55;;;17.23;;
19754;SDS011;10036;47.812;9.274;2022-12-07T12:05:56;33.42;;;20.25;;
19754;SDS011;10036;47.812;9.274;2022-12-07T12:08:24;25.35;;;15.40;;
19754;SDS011;10036;47.812;9.274;2022-12-07T12:10:58;79.75;;;31.92;;
19754;SDS011;10036;47.812;9.274;2022-12-07T12:13:44;62.55;;;25.75;;
19754;SDS011;10036;47.812;9.274;2022-12-07T12:19:44;15.90;;;10.13;;
19754;SDS011;10036;47.812;9.274;2022-12-07T12:22:28;20.83;;;11.18;;
19754;SDS011;10036;47.812;9.274;2022-12-07T12:25:02;35.40;;;16.55;;
19754;SDS011;10036;47.812;9.274;2022-12-07T12:27:32;22.60;;;11.90;;
19754;SDS011;10036;47.812;9.274;2022-12-07T12:30:01;26.08;;;12.82;;
19754;SDS011;10036;47.812;9.274;2022-12-07T12:32:32;19.00;;;11.48;;
19754;SDS011;10036;47.812;9.274;2022-12-07T12:35:26;16.55;;;9.98;;
19754;SDS011;10036;47.812;9.274;2022-12-07T12:38:20;19.17;;;11.07;;
19754;SDS011;10036;47.812;9.274;2022-12-07T12:40:53;16.55;;;10.43;;
19754;SDS011;10036;47.812;9.274;2022-12-07T12:43:39;16.48;;;10.10;;
19754;SDS011;10036;47.812;9.274;2022-12-07T12:49:30;19.33;;;11.95;;
19754;SDS011;10036;47.812;9.274;2022-12-07T12:52:00;15.63;;;10.90;;
19754;SDS011;10036;47.812;9.274;2022-12-07T12:54:58;13.90;;;10.38;;
19754;SDS011;10036;47.812;9.274;2022-12-07T12:57:27;14.55;;;10.00;;
19754;SDS011;10036;47.812;9.274;2022-12-07T12:59:56;14.43;;;9.38;;
19754;SDS011;10036;47.812;9.274;2022-12-07T13:02:24;13.63;;;9.43;;
19754;SDS011;10036;47.812;9.274;2022-12-07T13:04:53;12.65;;;9.20;;
19754;SDS011;10036;47.812;9.274;2022-12-07T13:22:39;16.02;;;9.73;;
19754;SDS011;10036;47.812;9.274;2022-12-07T13:25:09;13.35;;;9.68;;
19754;SDS011;10036;47.812;9.274;2022-12-07T13:27:40;15.20;;;9.90;;
19754;SDS011;10036;47.812;9.274;2022-12-07T13:30:13;14.88;;;9.63;;
19754;SDS011;10036;47.812;9.274;2022-12-07T13:32:42;13.63;;;8.93;;
19754;SDS011;10036;47.812;9.274;2022-12-07T13:35:31;12.77;;;8.93;;
19754;SDS011;10036;47.812;9.274;2022-12-07T13:38:01;17.98;;;11.18;;
19754;SDS011;10036;47.812;9.274;2022-12-07T13:40:31;15.80;;;10.52;;
19754;SDS011;10036;47.812;9.274;2022-12-07T13:42:59;16.15;;;10.65;;
19754;SDS011;10036;47.812;9.274;2022-12-07T13:45:28;14.32;;;10.30;;
19754;SDS011;10036;47.812;9.274;2022-12-07T13:48:16;14.43;;;9.85;;
19754;SDS011;10036;47.812;9.274;2022-12-07T13:50:52;19.60;;;12.35;;
19754;SDS011;10036;47.812;9.274;2022-12-07T13:53:20;20.35;;;12.38;;
19754;SDS011;10036;47.812;9.274;2022-12-07T13:55:47;25.70;;;12.30;;
19754;SDS011;10036;47.812;9.274;2022-12-07T13:58:16;20.80;;;13.70;;
19754;SDS011;10036;47.812;9.274;2022-12-07T14:00:43;21.45;;;13.40;;
19754;SDS011;10036;47.812;9.274;2022-12-07T14:03:30;17.63;;;11.70;;
19754;SDS011;10036;47.812;9.274;2022-12-07T14:06:13;16.83;;;10.77;;
19754;SDS011;10036;47.812;9.274;2022-12-07T14:08:42;17.38;;;11.02;;
19754;SDS011;10036;47.812;9.274;2022-12-07T14:11:11;18.63;;;10.95;;
19754;SDS011;10036;47.812;9.274;2022-12-07T14:13:49;16.38;;;10.70;;
19754;SDS011;10036;47.812;9.274;2022-12-07T14:16:23;18.45;;;10.50;;
19754;SDS011;10036;47.812;9.274;2022-12-07T14:18:52;17.23;;;11.10;;
19754;SDS011;10036;47.812;9.274;2022-12-07T14:21:21;17.00;;;10.02;;
19754;SDS011;10036;47.812;9.274;2022-12-07T14:26:41;17.20;;;9.88;;
19754;SDS011;10036;47.812;9.274;2022-12-07T14:32:12;16.58;;;10.32;;
19754;SDS011;10036;47.812;9.274;2022-12-07T14:34:58;17.52;;;9.98;;
19754;SDS011;10036;47.812;9.274;2022-12-07T14:37:26;19.13;;;10.27;;
19754;SDS011;10036;47.812;9.274;2022-12-07T14:39:54;14.82;;;9.30;;
19754;SDS011;10036;47.812;9.274;2022-12-07T14:42:22;21.65;;;10.73;;
19754;SDS011;10036;47.812;9.274;2022-12-07T14:44:52;14.05;;;10.23;;
19754;SDS011;10036;47.812;9.274;2022-12-07T14:47:19;16.60;;;10.05;;
19754;SDS011;10036;47.812;9.274;2022-12-07T14:49:46;14.73;;;9.75;;
19754;SDS011;10036;47.812;9.274;2022-12-07T14:52:14;15.45;;;9.70;;
19754;SDS011;10036;47.812;9.274;2022-12-07T14:54:43;15.18;;;9.82;;
19754;SDS011;10036;47.812;9.274;2022-12-07T14:57:10;14.15;;;9.05;;
19754;SDS011;10036;47.812;9.274;2022-12-07T14:59:37;15.77;;;10.02;;
19754;SDS011;10036;47.812;9.274;2022-12-07T15:02:06;15.35;;;10.25;;
19754;SDS011;10036;47.812;9.274;2022-12-07T15:04:35;23.63;;;10.88;;
19754;SDS011;10036;47.812;9.274;2022-12-07T15:07:03;20.65;;;12.45;;
19754;SDS011;10036;47.812;9.274;2022-12-07T15:09:31;21.48;;;13.45;;
19754;SDS011;10036;47.812;9.274;2022-12-07T15:11:58;21.23;;;13.00;;
19754;SDS011;10036;47.812;9.274;2022-12-07T15:14:25;21.20;;;12.35;;
19754;SDS011;10036;47.812;9.274;2022-12-07T15:16:52;15.68;;;10.77;;